sensor_id;sensor_type;location;lat;lon;timestamp;pressure;altitude;pressure_sealevel;temperature
45393;BMP280;31129;44.810;10.334;2023-12-20T00:00:40;100816.59;;;7.33
45393;BMP280;31129;44.810;10.334;2023-12-20T00:03:05;100807.47;;;7.39
45393;BMP280;31129;44.810;10.334;2023-12-20T00:05:31;100804.88;;;7.36
45393;BMP280;31129;44.810;10.334;2023-12-20T00:07:57;100809.75;;;7.41
45393;BMP280;31129;44.810;10.334;2023-12-20T00:10:23;100794.78;;;7.36
45393;BMP280;31129;44.810;10.334;2023-12-20T00:12:48;100788.81;;;7.29
45393;BMP280;31129;44.810;10.334;2023-12-20T00:15:13;100777.75;;;7.36
45393;BMP280;31129;44.810;10.334;2023-12-20T00:17:39;100769.38;;;7.30
45393;BMP280;31129;44.810;10.334;2023-12-20T00:20:04;100774.59;;;7.24
45393;BMP280;31129;44.810;10.334;2023-12-20T00:22:31;100776.00;;;7.29
45393;BMP280;31129;44.810;10.334;2023-12-20T00:24:56;100770.25;;;7.27
45393;BMP280;31129;44.810;10.334;2023-12-20T00:27:22;100782.94;;;7.30
45393;BMP280;31129;44.810;10.334;2023-12-20T00:29:48;100767.03;;;7.19
45393;BMP280;31129;44.810;10.334;2023-12-20T00:32:15;100768.31;;;7.15
45393;BMP280;31129;44.810;10.334;2023-12-20T00:34:40;100766.69;;;7.17
45393;BMP280;31129;44.810;10.334;2023-12-20T00:37:06;100755.13;;;7.04
45393;BMP280;31129;44.810;10.334;2023-12-20T00:39:31;100760.28;;;7.11
45393;BMP280;31129;44.810;10.334;2023-12-20T00:41:58;100752.81;;;7.03
45393;BMP280;31129;44.810;10.334;2023-12-20T00:44:23;100758.66;;;7.14
45393;BMP280;31129;44.810;10.334;2023-12-20T00:46:49;100748.59;;;7.02
45393;BMP280;31129;44.810;10.334;2023-12-20T00:49:14;100741.31;;;6.99
45393;BMP280;31129;44.810;10.334;2023-12-20T00:51:39;100732.41;;;7.11
45393;BMP280;31129;44.810;10.334;2023-12-20T00:54:05;100721.78;;;7.04
45393;BMP280;31129;44.810;10.334;2023-12-20T00:56:30;100720.28;;;7.03
45393;BMP280;31129;44.810;10.334;2023-12-20T00:58:55;100721.38;;;7.05
45393;BMP280;31129;44.810;10.334;2023-12-20T01:01:21;100723.66;;;7.07
45393;BMP280;31129;44.810;10.334;2023-12-20T01:03:47;100714.31;;;7.08
45393;BMP280;31129;44.810;10.334;2023-12-20T01:06:13;100714.31;;;7.20
45393;BMP280;31129;44.810;10.334;2023-12-20T01:08:38;100709.38;;;7.28
45393;BMP280;31129;44.810;10.334;2023-12-20T01:11:04;100708.53;;;7.18
45393;BMP280;31129;44.810;10.334;2023-12-20T01:13:30;100703.47;;;7.08
45393;BMP280;31129;44.810;10.334;2023-12-20T01:15:55;100710.94;;;7.04
45393;BMP280;31129;44.810;10.334;2023-12-20T01:18:21;100710.94;;;7.04
45393;BMP280;31129;44.810;10.334;2023-12-20T01:20:46;100705.63;;;7.00
45393;BMP280;31129;44.810;10.334;2023-12-20T01:23:11;100701.84;;;6.98
45393;BMP280;31129;44.810;10.334;2023-12-20T01:25:37;100701.84;;;6.98
45393;BMP280;31129;44.810;10.334;2023-12-20T01:28:02;100709.34;;;6.93
45393;BMP280;31129;44.810;10.334;2023-12-20T01:30:28;100700.47;;;6.93
45393;BMP280;31129;44.810;10.334;2023-12-20T01:32:53;100687.06;;;6.99
45393;BMP280;31129;44.810;10.334;2023-12-20T01:35:19;100683.81;;;7.04
45393;BMP280;31129;44.810;10.334;2023-12-20T01:37:45;100684.19;;;6.93
45393;BMP280;31129;44.810;10.334;2023-12-20T01:40:10;100683.22;;;6.74
45393;BMP280;31129;44.810;10.334;2023-12-20T01:42:35;100675.97;;;6.84
45393;BMP280;31129;44.810;10.334;2023-12-20T01:45:01;100675.50;;;6.85
45393;BMP280;31129;44.810;10.334;2023-12-20T01:47:27;100673.56;;;6.73
45393;BMP280;31129;44.810;10.334;2023-12-20T01:49:53;100669.03;;;6.70
45393;BMP280;31129;44.810;10.334;2023-12-20T01:52:19;100666.53;;;6.63
45393;BMP280;31129;44.810;10.334;2023-12-20T01:54:44;100668.81;;;6.77
45393;BMP280;31129;44.810;10.334;2023-12-20T01:57:10;100666.22;;;6.74
45393;BMP280;31129;44.810;10.334;2023-12-20T01:59:35;100666.31;;;6.83
45393;BMP280;31129;44.810;10.334;2023-12-20T02:02:02;100658.84;;;6.74
45393;BMP280;31129;44.810;10.334;2023-12-20T02:04:28;100657.66;;;6.50
45393;BMP280;31129;44.810;10.334;2023-12-20T02:06:54;100657.00;;;6.58
45393;BMP280;31129;44.810;10.334;2023-12-20T02:09:20;100659.72;;;6.58
45393;BMP280;31129;44.810;10.334;2023-12-20T02:11:45;100661.78;;;6.67
45393;BMP280;31129;44.810;10.334;2023-12-20T02:14:11;100648.53;;;6.56
45393;BMP280;31129;44.810;10.334;2023-12-20T02:16:36;100648.97;;;6.55
45393;BMP280;31129;44.810;10.334;2023-12-20T02:19:03;100646.06;;;6.49
45393;BMP280;31129;44.810;10.334;2023-12-20T02:21:31;100634.78;;;6.51
45393;BMP280;31129;44.810;10.334;2023-12-20T02:23:57;100640.31;;;6.47
45393;BMP280;31129;44.810;10.334;2023-12-20T02:26:23;100651.81;;;6.51
45393;BMP280;31129;44.810;10.334;2023-12-20T02:28:48;100660.19;;;6.44
45393;BMP280;31129;44.810;10.334;2023-12-20T02:31:14;100653.00;;;6.50
45393;BMP280;31129;44.810;10.334;2023-12-20T02:33:39;100660.03;;;6.35
45393;BMP280;31129;44.810;10.334;2023-12-20T02:36:07;100658.97;;;6.45
45393;BMP280;31129;44.810;10.334;2023-12-20T02:38:32;100653.31;;;6.27
45393;BMP280;31129;44.810;10.334;2023-12-20T02:40:59;100657.13;;;6.17
45393;BMP280;31129;44.810;10.334;2023-12-20T02:43:24;100656.97;;;6.08
45393;BMP280;31129;44.810;10.334;2023-12-20T02:45:49;100656.56;;;6.22
45393;BMP280;31129;44.810;10.334;2023-12-20T02:48:15;100657.63;;;6.12
45393;BMP280;31129;44.810;10.334;2023-12-20T02:50:40;100651.81;;;6.13
45393;BMP280;31129;44.810;10.334;2023-12-20T02:53:05;100649.19;;;6.22
45393;BMP280;31129;44.810;10.334;2023-12-20T02:55:31;100634.47;;;6.23
45393;BMP280;31129;44.810;10.334;2023-12-20T02:57:56;100639.88;;;6.11
45393;BMP280;31129;44.810;10.334;2023-12-20T03:00:22;100632.94;;;6.10
45393;BMP280;31129;44.810;10.334;2023-12-20T03:02:47;100628.53;;;6.16
45393;BMP280;31129;44.810;10.334;2023-12-20T03:05:12;100624.06;;;6.22
45393;BMP280;31129;44.810;10.334;2023-12-20T03:07:38;100620.69;;;6.18
45393;BMP280;31129;44.810;10.334;2023-12-20T03:10:03;100612.03;;;6.23
45393;BMP280;31129;44.810;10.334;2023-12-20T03:12:29;100599.94;;;6.15
45393;BMP280;31129;44.810;10.334;2023-12-20T03:14:54;100600.13;;;6.20
45393;BMP280;31129;44.810;10.334;2023-12-20T03:17:20;100599.50;;;6.29
45393;BMP280;31129;44.810;10.334;2023-12-20T03:19:46;100591.69;;;6.31
45393;BMP280;31129;44.810;10.334;2023-12-20T03:22:11;100586.72;;;6.30
45393;BMP280;31129;44.810;10.334;2023-12-20T03:24:36;100581.03;;;6.37
45393;BMP280;31129;44.810;10.334;2023-12-20T03:27:02;100575.88;;;6.30
45393;BMP280;31129;44.810;10.334;2023-12-20T03:29:27;100573.16;;;6.30
45393;BMP280;31129;44.810;10.334;2023-12-20T03:31:55;100562.84;;;6.24
45393;BMP280;31129;44.810;10.334;2023-12-20T03:34:21;100554.63;;;6.28
45393;BMP280;31129;44.810;10.334;2023-12-20T03:36:46;100568.69;;;6.36
45393;BMP280;31129;44.810;10.334;2023-12-20T03:39:13;100571.41;;;6.36
45393;BMP280;31129;44.810;10.334;2023-12-20T03:41:38;100563.53;;;6.29
45393;BMP280;31129;44.810;10.334;2023-12-20T03:44:03;100561.22;;;6.27
45393;BMP280;31129;44.810;10.334;2023-12-20T03:46:29;100557.97;;;6.32
45393;BMP280;31129;44.810;10.334;2023-12-20T03:48:54;100553.88;;;6.15
45393;BMP280;31129;44.810;10.334;2023-12-20T03:51:19;100563.19;;;6.14
45393;BMP280;31129;44.810;10.334;2023-12-20T03:53:45;100552.25;;;6.17
45393;BMP280;31129;44.810;10.334;2023-12-20T03:56:10;100557.09;;;6.22
45393;BMP280;31129;44.810;10.334;2023-12-20T03:58:36;100558.97;;;6.13
45393;BMP280;31129;44.810;10.334;2023-12-20T04:01:01;100545.50;;;6.22
45393;BMP280;31129;44.810;10.334;2023-12-20T04:03:27;100545.09;;;6.11
45393;BMP280;31129;44.810;10.334;2023-12-20T04:05:53;100553.22;;;6.11
45393;BMP280;31129;44.810;10.334;2023-12-20T04:08:18;100553.75;;;6.18
45393;BMP280;31129;44.810;10.334;2023-12-20T04:10:43;100555.50;;;6.12
45393;BMP280;31129;44.810;10.334;2023-12-20T04:13:09;100545.31;;;5.91
45393;BMP280;31129;44.810;10.334;2023-12-20T04:15:34;100545.53;;;5.97
45393;BMP280;31129;44.810;10.334;2023-12-20T04:17:59;100543.94;;;5.99
45393;BMP280;31129;44.810;10.334;2023-12-20T04:20:25;100535.81;;;5.99
45393;BMP280;31129;44.810;10.334;2023-12-20T04:22:50;100543.06;;;6.02
45393;BMP280;31129;44.810;10.334;2023-12-20T04:25:15;100543.06;;;6.15
45393;BMP280;31129;44.810;10.334;2023-12-20T04:27:41;100533.91;;;6.21
45393;BMP280;31129;44.810;10.334;2023-12-20T04:30:08;100521.25;;;6.06
45393;BMP280;31129;44.810;10.334;2023-12-20T04:32:34;100526.38;;;6.04
45393;BMP280;31129;44.810;10.334;2023-12-20T04:34:59;100525.91;;;6.05
45393;BMP280;31129;44.810;10.334;2023-12-20T04:37:25;100529.28;;;6.09
45393;BMP280;31129;44.810;10.334;2023-12-20T04:39:50;100523.41;;;6.11
45393;BMP280;31129;44.810;10.334;2023-12-20T04:42:15;100524.16;;;6.24
45393;BMP280;31129;44.810;10.334;2023-12-20T04:44:41;100518.44;;;6.22
45393;BMP280;31129;44.810;10.334;2023-12-20T04:47:06;100510.53;;;6.28
45393;BMP280;31129;44.810;10.334;2023-12-20T04:49:31;100505.94;;;6.37
45393;BMP280;31129;44.810;10.334;2023-12-20T04:51:57;100509.28;;;6.41
45393;BMP280;31129;44.810;10.334;2023-12-20T04:54:22;100504.91;;;6.56
45393;BMP280;31129;44.810;10.334;2023-12-20T04:56:48;100509.38;;;6.50
45393;BMP280;31129;44.810;10.334;2023-12-20T04:59:13;100512.97;;;6.47
45393;BMP280;31129;44.810;10.334;2023-12-20T05:01:39;100502.00;;;6.51
45393;BMP280;31129;44.810;10.334;2023-12-20T05:04:04;100510.09;;;6.64
45393;BMP280;31129;44.810;10.334;2023-12-20T05:06:29;100527.16;;;6.51
45393;BMP280;31129;44.810;10.334;2023-12-20T05:08:55;100542.91;;;6.44
45393;BMP280;31129;44.810;10.334;2023-12-20T05:11:20;100521.72;;;6.17
45393;BMP280;31129;44.810;10.334;2023-12-20T05:13:45;100514.63;;;6.19
45393;BMP280;31129;44.810;10.334;2023-12-20T05:16:11;100510.63;;;6.24
45393;BMP280;31129;44.810;10.334;2023-12-20T05:18:36;100510.84;;;6.30
45393;BMP280;31129;44.810;10.334;2023-12-20T05:21:02;100494.63;;;6.51
45393;BMP280;31129;44.810;10.334;2023-12-20T05:23:27;100489.97;;;6.52
45393;BMP280;31129;44.810;10.334;2023-12-20T05:25:53;100476.63;;;6.57
45393;BMP280;31129;44.810;10.334;2023-12-20T05:28:18;100479.13;;;6.52
45393;BMP280;31129;44.810;10.334;2023-12-20T05:30:43;100493.44;;;6.52
45393;BMP280;31129;44.810;10.334;2023-12-20T05:33:09;100503.41;;;6.55
45393;BMP280;31129;44.810;10.334;2023-12-20T05:35:34;100491.50;;;6.53
45393;BMP280;31129;44.810;10.334;2023-12-20T05:38:00;100499.59;;;6.31
45393;BMP280;31129;44.810;10.334;2023-12-20T05:40:25;100503.56;;;6.39
45393;BMP280;31129;44.810;10.334;2023-12-20T05:42:50;100501.72;;;6.36
45393;BMP280;31129;44.810;10.334;2023-12-20T05:45:16;100507.13;;;6.36
45393;BMP280;31129;44.810;10.334;2023-12-20T05:47:41;100503.16;;;6.28
45393;BMP280;31129;44.810;10.334;2023-12-20T05:50:06;100491.75;;;6.33
45393;BMP280;31129;44.810;10.334;2023-12-20T05:52:32;100493.59;;;6.36
45393;BMP280;31129;44.810;10.334;2023-12-20T05:54:57;100486.56;;;6.26
45393;BMP280;31129;44.810;10.334;2023-12-20T05:57:26;100473.78;;;6.26
45393;BMP280;31129;44.810;10.334;2023-12-20T05:59:51;100483.78;;;6.30
45393;BMP280;31129;44.810;10.334;2023-12-20T06:02:17;100484.22;;;6.28
45393;BMP280;31129;44.810;10.334;2023-12-20T06:04:42;100491.09;;;6.42
45393;BMP280;31129;44.810;10.334;2023-12-20T06:07:09;100480.09;;;6.58
45393;BMP280;31129;44.810;10.334;2023-12-20T06:09:36;100495.59;;;6.57
45393;BMP280;31129;44.810;10.334;2023-12-20T06:12:01;100489.53;;;6.53
45393;BMP280;31129;44.810;10.334;2023-12-20T06:14:27;100483.25;;;6.56
45393;BMP280;31129;44.810;10.334;2023-12-20T06:16:52;100484.44;;;6.55
45393;BMP280;31129;44.810;10.334;2023-12-20T06:19:18;100486.91;;;6.63
45393;BMP280;31129;44.810;10.334;2023-12-20T06:21:43;100484.63;;;6.61
45393;BMP280;31129;44.810;10.334;2023-12-20T06:24:08;100476.94;;;6.59
45393;BMP280;31129;44.810;10.334;2023-12-20T06:26:34;100477.38;;;6.58
45393;BMP280;31129;44.810;10.334;2023-12-20T06:29:00;100462.81;;;6.65
45393;BMP280;31129;44.810;10.334;2023-12-20T06:31:25;100461.63;;;6.66
45393;BMP280;31129;44.810;10.334;2023-12-20T06:33:51;100463.47;;;6.69
45393;BMP280;31129;44.810;10.334;2023-12-20T06:36:22;100462.69;;;6.68
45393;BMP280;31129;44.810;10.334;2023-12-20T06:38:48;100462.69;;;6.68
45393;BMP280;31129;44.810;10.334;2023-12-20T06:41:13;100462.91;;;6.74
45393;BMP280;31129;44.810;10.334;2023-12-20T06:43:41;100451.16;;;6.77
45393;BMP280;31129;44.810;10.334;2023-12-20T06:46:07;100462.47;;;6.75
45393;BMP280;31129;44.810;10.334;2023-12-20T06:48:32;100457.88;;;6.72
45393;BMP280;31129;44.810;10.334;2023-12-20T06:50:59;100468.50;;;6.79
45393;BMP280;31129;44.810;10.334;2023-12-20T06:53:24;100473.31;;;6.75
45393;BMP280;31129;44.810;10.334;2023-12-20T06:55:50;100468.84;;;6.81
45393;BMP280;31129;44.810;10.334;2023-12-20T06:58:15;100475.13;;;6.78
45393;BMP280;31129;44.810;10.334;2023-12-20T07:00:40;100476.00;;;6.75
45393;BMP280;31129;44.810;10.334;2023-12-20T07:03:06;100481.50;;;6.84
45393;BMP280;31129;44.810;10.334;2023-12-20T07:05:31;100480.50;;;6.91
45393;BMP280;31129;44.810;10.334;2023-12-20T07:07:56;100470.41;;;6.91
45393;BMP280;31129;44.810;10.334;2023-12-20T07:10:22;100493.63;;;6.92
45393;BMP280;31129;44.810;10.334;2023-12-20T07:12:47;100504.25;;;6.87
45393;BMP280;31129;44.810;10.334;2023-12-20T07:15:14;100506.91;;;7.00
45393;BMP280;31129;44.810;10.334;2023-12-20T07:17:39;100500.88;;;6.96
45393;BMP280;31129;44.810;10.334;2023-12-20T07:20:05;100503.88;;;6.76
45393;BMP280;31129;44.810;10.334;2023-12-20T07:22:31;100506.44;;;6.57
45393;BMP280;31129;44.810;10.334;2023-12-20T07:24:57;100512.41;;;6.52
45393;BMP280;31129;44.810;10.334;2023-12-20T07:27:23;100502.00;;;6.51
45393;BMP280;31129;44.810;10.334;2023-12-20T07:29:48;100492.72;;;6.39
45393;BMP280;31129;44.810;10.334;2023-12-20T07:32:13;100494.66;;;6.39
45393;BMP280;31129;44.810;10.334;2023-12-20T07:34:39;100506.69;;;6.38
45393;BMP280;31129;44.810;10.334;2023-12-20T07:37:04;100507.94;;;6.58
45393;BMP280;31129;44.810;10.334;2023-12-20T07:39:29;100510.91;;;6.51
45393;BMP280;31129;44.810;10.334;2023-12-20T07:41:55;100512.44;;;6.40
45393;BMP280;31129;44.810;10.334;2023-12-20T07:44:20;100515.53;;;6.29
45393;BMP280;31129;44.810;10.334;2023-12-20T07:46:46;100510.31;;;6.09
45393;BMP280;31129;44.810;10.334;2023-12-20T07:49:13;100515.59;;;6.25
45393;BMP280;31129;44.810;10.334;2023-12-20T07:51:38;100520.13;;;6.41
45393;BMP280;31129;44.810;10.334;2023-12-20T07:54:04;100521.19;;;6.56
45393;BMP280;31129;44.810;10.334;2023-12-20T07:56:30;100520.41;;;6.56
45393;BMP280;31129;44.810;10.334;2023-12-20T07:58:55;100514.59;;;6.79
45393;BMP280;31129;44.810;10.334;2023-12-20T08:01:20;100518.63;;;6.75
45393;BMP280;31129;44.810;10.334;2023-12-20T08:03:46;100526.69;;;6.87
45393;BMP280;31129;44.810;10.334;2023-12-20T08:06:11;100533.63;;;6.88
45393;BMP280;31129;44.810;10.334;2023-12-20T08:08:37;100533.22;;;6.90
45393;BMP280;31129;44.810;10.334;2023-12-20T08:11:02;100541.00;;;6.88
45393;BMP280;31129;44.810;10.334;2023-12-20T08:13:28;100537.22;;;6.85
45393;BMP280;31129;44.810;10.334;2023-12-20T08:15:53;100531.94;;;7.04
45393;BMP280;31129;44.810;10.334;2023-12-20T08:18:19;100529.34;;;7.00
45393;BMP280;31129;44.810;10.334;2023-12-20T08:20:44;100536.19;;;7.05
45393;BMP280;31129;44.810;10.334;2023-12-20T08:23:09;100523.88;;;7.13
45393;BMP280;31129;44.810;10.334;2023-12-20T08:25:35;100520.34;;;7.03
45393;BMP280;31129;44.810;10.334;2023-12-20T08:28:01;100530.03;;;7.13
45393;BMP280;31129;44.810;10.334;2023-12-20T08:30:27;100535.53;;;7.01
45393;BMP280;31129;44.810;10.334;2023-12-20T08:32:52;100536.28;;;7.01
45393;BMP280;31129;44.810;10.334;2023-12-20T08:35:18;100527.06;;;6.99
45393;BMP280;31129;44.810;10.334;2023-12-20T08:37:44;100536.50;;;7.07
45393;BMP280;31129;44.810;10.334;2023-12-20T08:40:09;100540.19;;;7.00
45393;BMP280;31129;44.810;10.334;2023-12-20T08:42:35;100547.19;;;6.88
45393;BMP280;31129;44.810;10.334;2023-12-20T08:45:00;100558.63;;;6.83
45393;BMP280;31129;44.810;10.334;2023-12-20T08:47:25;100562.00;;;6.75
45393;BMP280;31129;44.810;10.334;2023-12-20T08:49:51;100557.97;;;6.79
45393;BMP280;31129;44.810;10.334;2023-12-20T08:52:17;100553.66;;;6.69
45393;BMP280;31129;44.810;10.334;2023-12-20T08:54:43;100547.00;;;6.83
45393;BMP280;31129;44.810;10.334;2023-12-20T08:57:08;100540.38;;;6.84
45393;BMP280;31129;44.810;10.334;2023-12-20T08:59:33;100549.13;;;6.88
45393;BMP280;31129;44.810;10.334;2023-12-20T09:01:59;100549.09;;;7.01
45393;BMP280;31129;44.810;10.334;2023-12-20T09:04:24;100539.97;;;7.07
45393;BMP280;31129;44.810;10.334;2023-12-20T09:06:50;100534.91;;;7.18
45393;BMP280;31129;44.810;10.334;2023-12-20T09:09:15;100534.97;;;7.28
45393;BMP280;31129;44.810;10.334;2023-12-20T09:11:40;100532.63;;;7.39
45393;BMP280;31129;44.810;10.334;2023-12-20T09:14:07;100529.19;;;7.47
45393;BMP280;31129;44.810;10.334;2023-12-20T09:16:32;100522.59;;;7.57
45393;BMP280;31129;44.810;10.334;2023-12-20T09:18:59;100513.13;;;7.62
45393;BMP280;31129;44.810;10.334;2023-12-20T09:21:25;100505.78;;;7.72
45393;BMP280;31129;44.810;10.334;2023-12-20T09:23:50;100508.53;;;7.81
45393;BMP280;31129;44.810;10.334;2023-12-20T09:26:16;100512.31;;;7.92
45393;BMP280;31129;44.810;10.334;2023-12-20T09:28:41;100512.06;;;8.00
45393;BMP280;31129;44.810;10.334;2023-12-20T09:31:06;100518.59;;;8.11
45393;BMP280;31129;44.810;10.334;2023-12-20T09:33:32;100505.91;;;8.17
45393;BMP280;31129;44.810;10.334;2023-12-20T09:35:58;100502.72;;;8.19
45393;BMP280;31129;44.810;10.334;2023-12-20T09:38:23;100499.59;;;8.30
45393;BMP280;31129;44.810;10.334;2023-12-20T09:40:49;100490.66;;;8.38
45393;BMP280;31129;44.810;10.334;2023-12-20T09:43:14;100499.59;;;8.48
45393;BMP280;31129;44.810;10.334;2023-12-20T09:45:41;100490.34;;;8.54
45393;BMP280;31129;44.810;10.334;2023-12-20T09:48:07;100487.34;;;8.62
45393;BMP280;31129;44.810;10.334;2023-12-20T09:50:32;100487.34;;;8.71
45393;BMP280;31129;44.810;10.334;2023-12-20T09:52:58;100486.25;;;8.86
45393;BMP280;31129;44.810;10.334;2023-12-20T09:55:25;100477.31;;;8.86
45393;BMP280;31129;44.810;10.334;2023-12-20T09:57:52;100487.91;;;8.93
45393;BMP280;31129;44.810;10.334;2023-12-20T10:00:17;100485.31;;;8.99
45393;BMP280;31129;44.810;10.334;2023-12-20T10:02:50;100481.84;;;8.98
45393;BMP280;31129;44.810;10.334;2023-12-20T10:05:16;100475.47;;;9.10
45393;BMP280;31129;44.810;10.334;2023-12-20T10:07:44;100464.56;;;9.19
45393;BMP280;31129;44.810;10.334;2023-12-20T10:10:09;100460.75;;;9.26
45393;BMP280;31129;44.810;10.334;2023-12-20T10:12:35;100462.81;;;9.31
45393;BMP280;31129;44.810;10.334;2023-12-20T10:15:00;100458.00;;;9.35
45393;BMP280;31129;44.810;10.334;2023-12-20T10:17:26;100459.63;;;9.42
45393;BMP280;31129;44.810;10.334;2023-12-20T10:19:54;100457.09;;;9.38
45393;BMP280;31129;44.810;10.334;2023-12-20T10:22:19;100455.16;;;9.29
45393;BMP280;31129;44.810;10.334;2023-12-20T10:24:45;100456.16;;;9.32
45393;BMP280;31129;44.810;10.334;2023-12-20T10:27:11;100442.72;;;9.38
45393;BMP280;31129;44.810;10.334;2023-12-20T10:29:37;100440.56;;;9.42
45393;BMP280;31129;44.810;10.334;2023-12-20T10:32:25;100439.25;;;9.37
45393;BMP280;31129;44.810;10.334;2023-12-20T10:34:51;100439.03;;;9.41
45393;BMP280;31129;44.810;10.334;2023-12-20T10:37:17;100429.66;;;9.42
45393;BMP280;31129;44.810;10.334;2023-12-20T10:39:42;100422.84;;;9.46
45393;BMP280;31129;44.810;10.334;2023-12-20T10:42:11;100431.00;;;9.46
45393;BMP280;31129;44.810;10.334;2023-12-20T10:44:37;100434.81;;;9.49
45393;BMP280;31129;44.810;10.334;2023-12-20T10:47:03;100434.63;;;9.52
45393;BMP280;31129;44.810;10.334;2023-12-20T10:49:29;100426.56;;;9.58
45393;BMP280;31129;44.810;10.334;2023-12-20T10:51:55;100427.38;;;9.49
45393;BMP280;31129;44.810;10.334;2023-12-20T10:54:22;100416.81;;;9.42
45393;BMP280;31129;44.810;10.334;2023-12-20T10:56:47;100420.78;;;9.32
45393;BMP280;31129;44.810;10.334;2023-12-20T10:59:19;100419.00;;;9.29
45393;BMP280;31129;44.810;10.334;2023-12-20T11:01:45;100429.75;;;9.23
45393;BMP280;31129;44.810;10.334;2023-12-20T11:04:13;100429.22;;;9.10
45393;BMP280;31129;44.810;10.334;2023-12-20T11:06:48;100427.25;;;9.11
45393;BMP280;31129;44.810;10.334;2023-12-20T11:09:17;100431.09;;;8.86
45393;BMP280;31129;44.810;10.334;2023-12-20T11:14:23;100424.47;;;8.69
45393;BMP280;31129;44.810;10.334;2023-12-20T11:16:50;100407.72;;;8.70
45393;BMP280;31129;44.810;10.334;2023-12-20T11:19:16;100415.25;;;8.75
45393;BMP280;31129;44.810;10.334;2023-12-20T11:21:42;100404.34;;;8.84
45393;BMP280;31129;44.810;10.334;2023-12-20T11:24:07;100406.59;;;8.86
45393;BMP280;31129;44.810;10.334;2023-12-20T11:26:33;100397.16;;;8.72
45393;BMP280;31129;44.810;10.334;2023-12-20T11:31:42;100403.63;;;8.75
45393;BMP280;31129;44.810;10.334;2023-12-20T11:34:14;100395.19;;;8.64
45393;BMP280;31129;44.810;10.334;2023-12-20T11:36:42;100409.78;;;8.84
45393;BMP280;31129;44.810;10.334;2023-12-20T11:39:07;100403.06;;;8.62
45393;BMP280;31129;44.810;10.334;2023-12-20T11:41:35;100415.59;;;8.59
45393;BMP280;31129;44.810;10.334;2023-12-20T11:44:01;100404.09;;;8.64
45393;BMP280;31129;44.810;10.334;2023-12-20T11:46:27;100404.25;;;8.70
45393;BMP280;31129;44.810;10.334;2023-12-20T11:48:54;100399.53;;;8.79
45393;BMP280;31129;44.810;10.334;2023-12-20T11:51:19;100395.28;;;8.87
45393;BMP280;31129;44.810;10.334;2023-12-20T11:53:44;100406.00;;;8.91
45393;BMP280;31129;44.810;10.334;2023-12-20T11:56:10;100411.94;;;8.80
45393;BMP280;31129;44.810;10.334;2023-12-20T11:58:35;100403.56;;;8.84
45393;BMP280;31129;44.810;10.334;2023-12-20T12:01:01;100399.19;;;8.86
45393;BMP280;31129;44.810;10.334;2023-12-20T12:03:29;100388.13;;;8.99
45393;BMP280;31129;44.810;10.334;2023-12-20T12:05:55;100386.91;;;9.00
45393;BMP280;31129;44.810;10.334;2023-12-20T12:08:21;100379.94;;;9.08
45393;BMP280;31129;44.810;10.334;2023-12-20T12:10:46;100377.69;;;9.07
45393;BMP280;31129;44.810;10.334;2023-12-20T12:13:11;100376.31;;;9.11
45393;BMP280;31129;44.810;10.334;2023-12-20T12:15:37;100377.91;;;9.18
45393;BMP280;31129;44.810;10.334;2023-12-20T12:18:03;100385.28;;;9.26
45393;BMP280;31129;44.810;10.334;2023-12-20T12:20:28;100379.09;;;9.26
45393;BMP280;31129;44.810;10.334;2023-12-20T12:22:57;100373.19;;;9.27
45393;BMP280;31129;44.810;10.334;2023-12-20T12:25:23;100378.94;;;9.29
45393;BMP280;31129;44.810;10.334;2023-12-20T12:27:48;100382.06;;;9.37
45393;BMP280;31129;44.810;10.334;2023-12-20T12:30:16;100384.31;;;9.39
45393;BMP280;31129;44.810;10.334;2023-12-20T12:32:43;100376.78;;;9.34
45393;BMP280;31129;44.810;10.334;2023-12-20T12:35:09;100362.94;;;9.46
45393;BMP280;31129;44.810;10.334;2023-12-20T12:37:35;100360.38;;;9.43
45393;BMP280;31129;44.810;10.334;2023-12-20T12:40:04;100354.25;;;9.57
45393;BMP280;31129;44.810;10.334;2023-12-20T12:42:30;100340.16;;;9.58
45393;BMP280;31129;44.810;10.334;2023-12-20T12:44:55;100326.44;;;9.53
45393;BMP280;31129;44.810;10.334;2023-12-20T12:47:23;100330.22;;;9.55
45393;BMP280;31129;44.810;10.334;2023-12-20T12:49:52;100334.16;;;9.54
45393;BMP280;31129;44.810;10.334;2023-12-20T12:52:18;100327.78;;;9.57
45393;BMP280;31129;44.810;10.334;2023-12-20T12:54:43;100319.69;;;9.63
45393;BMP280;31129;44.810;10.334;2023-12-20T12:57:10;100313.94;;;9.61
45393;BMP280;31129;44.810;10.334;2023-12-20T12:59:36;100320.22;;;9.76
45393;BMP280;31129;44.810;10.334;2023-12-20T13:02:01;100332.63;;;9.92
45393;BMP280;31129;44.810;10.334;2023-12-20T13:04:26;100329.41;;;9.93
45393;BMP280;31129;44.810;10.334;2023-12-20T13:06:52;100343.81;;;9.79
45393;BMP280;31129;44.810;10.334;2023-12-20T13:09:17;100334.75;;;9.73
45393;BMP280;31129;44.810;10.334;2023-12-20T13:11:44;100330.75;;;9.98
45393;BMP280;31129;44.810;10.334;2023-12-20T13:14:09;100329.09;;;10.15
45393;BMP280;31129;44.810;10.334;2023-12-20T13:16:40;100322.38;;;10.60
45393;BMP280;31129;44.810;10.334;2023-12-20T13:19:06;100320.91;;;10.80
45393;BMP280;31129;44.810;10.334;2023-12-20T13:21:31;100319.78;;;10.86
45393;BMP280;31129;44.810;10.334;2023-12-20T13:23:56;100310.34;;;10.52
45393;BMP280;31129;44.810;10.334;2023-12-20T13:26:22;100310.94;;;10.42
45393;BMP280;31129;44.810;10.334;2023-12-20T13:28:47;100316.75;;;10.35
45393;BMP280;31129;44.810;10.334;2023-12-20T13:31:12;100323.91;;;10.32
45393;BMP280;31129;44.810;10.334;2023-12-20T13:33:38;100315.63;;;10.12
45393;BMP280;31129;44.810;10.334;2023-12-20T13:36:04;100305.09;;;10.05
45393;BMP280;31129;44.810;10.334;2023-12-20T13:38:30;100313.06;;;9.93
45393;BMP280;31129;44.810;10.334;2023-12-20T13:40:55;100313.03;;;9.79
45393;BMP280;31129;44.810;10.334;2023-12-20T13:43:20;100318.22;;;9.77
45393;BMP280;31129;44.810;10.334;2023-12-20T13:45:47;100318.81;;;9.81
45393;BMP280;31129;44.810;10.334;2023-12-20T13:48:12;100317.97;;;9.89
45393;BMP280;31129;44.810;10.334;2023-12-20T13:50:38;100322.66;;;9.89
45393;BMP280;31129;44.810;10.334;2023-12-20T13:53:04;100327.75;;;9.96